Time;durP1;ratioP1;P1;durP2;ratioP2;P2;SDS_P1;SDS_P2;PMS_P1;PMS_P2;Temp;Humidity;BMP_temperature;BMP_pressure;BME280_temperature;BME280_humidity;BME280_pressure;Samples;Min_cycle;Max_cycle;Signal;HPM_P1;HPM_P2
2022/12/07 00:01:16;;;;;;;32.90;27.20;;;;;;;;;;9990954;28;20077;-65
2022/12/07 00:06:13;;;;;;;31.60;28.23;;;;;;;;;;9986157;28;20042;-65
2022/12/07 00:11:27;;;;;;;36.35;26.80;;;;;;;;;;10007128;28;20335;-65
2022/12/07 00:16:23;;;;;;;34.88;28.02;;;;;;;;;;9992094;28;20050;-64
2022/12/07 00:21:23;;;;;;;34.88;26.92;;;;;;;;;;9991806;28;20599;-65
2022/12/07 00:26:21;;;;;;;37.17;27.75;;;;;;;;;;9972650;28;20069;-65
2022/12/07 00:31:17;;;;;;;34.60;24.70;;;;;;;;;;9991167;28;20038;-65
2022/12/07 00:36:32;;;;;;;31.05;25.23;;;;;;;;;;9990866;28;20077;-65
2022/12/07 00:41:27;;;;;;;37.20;26.20;;;;;;;;;;9988343;28;20062;-67
2022/12/07 00:46:21;;;;;;;36.40;28.80;;;;;;;;;;9983975;28;20052;-66
2022/12/07 00:51:17;;;;;;;30.83;25.48;;;;;;;;;;9989535;28;20061;-66
2022/12/07 00:56:13;;;;;;;33.47;25.67;;;;;;;;;;9988110;28;20476;-66
2022/12/07 01:01:08;;;;;;;29.90;25.75;;;;;;;;;;9989185;28;20073;-66
2022/12/07 01:06:01;;;;;;;30.38;26.45;;;;;;;;;;9986048;28;20058;-66
2022/12/07 01:10:59;;;;;;;31.95;26.55;;;;;;;;;;9989521;28;20077;-66
2022/12/07 01:15:57;;;;;;;30.27;25.52;;;;;;;;;;9980702;28;20050;-66
2022/12/07 01:21:01;;;;;;;31.90;25.33;;;;;;;;;;9989482;28;20121;-66
2022/12/07 01:25:56;;;;;;;32.88;26.17;;;;;;;;;;9987000;28;20137;-66
2022/12/07 01:31:03;;;;;;;30.88;25.20;;;;;;;;;;9989846;28;20046;-66
2022/12/07 01:36:08;;;;;;;31.63;26.35;;;;;;;;;;9988233;28;20054;-66
2022/12/07 01:41:02;;;;;;;32.03;25.42;;;;;;;;;;10002366;28;20101;-66
2022/12/07 01:45:56;;;;;;;32.35;27.17;;;;;;;;;;9988244;28;20061;-66
2022/12/07 01:50:52;;;;;;;33.30;27.25;;;;;;;;;;9987838;28;20133;-66
2022/12/07 01:55:48;;;;;;;32.75;26.83;;;;;;;;;;9988215;28;20425;-66
2022/12/07 02:00:42;;;;;;;31.65;26.33;;;;;;;;;;9986755;28;20050;-65
2022/12/07 02:05:38;;;;;;;36.22;26.73;;;;;;;;;;9987902;28;20411;-65
2022/12/07 02:10:33;;;;;;;33.13;26.17;;;;;;;;;;9986624;28;20391;-66
2022/12/07 02:15:49;;;;;;;32.25;26.30;;;;;;;;;;9988287;28;20046;-66
2022/12/07 02:20:59;;;;;;;37.63;27.90;;;;;;;;;;9983405;28;20050;-65
2022/12/07 02:26:18;;;;;;;33.17;26.48;;;;;;;;;;9986063;28;20076;-66
2022/12/07 02:31:17;;;;;;;30.85;26.63;;;;;;;;;;9986206;28;20387;-66
2022/12/07 02:36:23;;;;;;;31.33;24.40;;;;;;;;;;9987006;28;20054;-66
2022/12/07 02:41:32;;;;;;;30.83;24.35;;;;;;;;;;9986193;28;20042;-66
2022/12/07 02:46:37;;;;;;;37.15;28.48;;;;;;;;;;9986465;28;20121;-65
2022/12/07 02:51:31;;;;;;;33.00;25.73;;;;;;;;;;9986623;28;20054;-66
2022/12/07 02:56:46;;;;;;;34.25;24.38;;;;;;;;;;9982856;28;20050;-66
2022/12/07 03:01:55;;;;;;;32.40;24.92;;;;;;;;;;9985540;28;20141;-66
2022/12/07 03:06:54;;;;;;;30.98;25.17;;;;;;;;;;9986303;28;20058;-66
2022/12/07 03:12:01;;;;;;;30.95;24.17;;;;;;;;;;9981662;28;20077;-66
2022/12/07 03:17:28;;;;;;;29.42;21.55;;;;;;;;;;9986646;28;20054;-65
2022/12/07 03:22:23;;;;;;;32.28;24.00;;;;;;;;;;9986982;28;20078;-66
2022/12/07 03:27:25;;;;;;;32.35;23.60;;;;;;;;;;9991934;28;20057;-66
2022/12/07 03:32:34;;;;;;;32.20;23.73;;;;;;;;;;9993586;28;20042;-66
2022/12/07 03:37:38;;;;;;;31.00;23.93;;;;;;;;;;9991200;28;20050;-66
2022/12/07 03:42:33;;;;;;;31.42;23.55;;;;;;;;;;9992771;28;20421;-66
2022/12/07 03:47:39;;;;;;;30.80;23.50;;;;;;;;;;10005704;28;20058;-66
2022/12/07 03:52:41;;;;;;;28.65;19.92;;;;;;;;;;9993319;28;20487;-65
2022/12/07 03:57:35;;;;;;;27.83;20.52;;;;;;;;;;9992887;28;20050;-65
2022/12/07 04:02:30;;;;;;;29.77;20.08;;;;;;;;;;9989942;28;20048;-65
2022/12/07 04:07:23;;;;;;;28.92;20.15;;;;;;;;;;9989771;28;20084;-65
2022/12/07 04:12:16;;;;;;;30.08;19.83;;;;;;;;;;9992127;28;20047;-66
2022/12/07 04:17:11;;;;;;;29.85;21.27;;;;;;;;;;9991456;28;20054;-66
2022/12/07 04:22:06;;;;;;;24.08;20.77;;;;;;;;;;9989444;28;20046;-66
2022/12/07 04:26:59;;;;;;;26.85;20.58;;;;;;;;;;9984514;28;20101;-65
2022/12/07 04:31:53;;;;;;;26.45;21.27;;;;;;;;;;9991306;28;20528;-66
2022/12/07 04:36:46;;;;;;;30.42;23.98;;;;;;;;;;9983543;28;20042;-65
2022/12/07 04:41:40;;;;;;;29.98;22.33;;;;;;;;;;9985924;28;20446;-66
2022/12/07 04:46:34;;;;;;;31.23;23.20;;;;;;;;;;9979066;28;20058;-65
2022/12/07 04:51:29;;;;;;;33.35;26.23;;;;;;;;;;9990146;28;20054;-66
2022/12/07 04:56:23;;;;;;;26.17;21.70;;;;;;;;;;9990037;28;20080;-65
2022/12/07 05:01:17;;;;;;;24.30;20.63;;;;;;;;;;9990023;28;20094;-66
2022/12/07 05:06:11;;;;;;;32.33;25.02;;;;;;;;;;9989501;28;20401;-66
2022/12/07 05:11:07;;;;;;;33.63;26.20;;;;;;;;;;9990200;28;20116;-66
2022/12/07 05:16:01;;;;;;;37.55;27.77;;;;;;;;;;9988347;28;20057;-66
2022/12/07 05:20:55;;;;;;;33.88;25.30;;;;;;;;;;9989030;28;20548;-66
2022/12/07 05:25:48;;;;;;;32.67;24.50;;;;;;;;;;9988007;28;20054;-66
2022/12/07 05:30:43;;;;;;;30.35;23.88;;;;;;;;;;9989220;28;20055;-65
2022/12/07 05:35:37;;;;;;;32.08;23.75;;;;;;;;;;9988157;28;20054;-65
2022/12/07 05:40:31;;;;;;;30.23;22.92;;;;;;;;;;9984848;28;20084;-65
2022/12/07 05:45:25;;;;;;;28.20;20.83;;;;;;;;;;9987661;28;20441;-66
2022/12/07 05:50:19;;;;;;;31.17;22.25;;;;;;;;;;9987316;28;20050;-66
2022/12/07 05:55:25;;;;;;;25.52;19.52;;;;;;;;;;9987225;28;20442;-66
2022/12/07 06:00:20;;;;;;;34.45;21.80;;;;;;;;;;9987836;28;20042;-66
2022/12/07 06:05:14;;;;;;;27.67;21.02;;;;;;;;;;9987933;28;20053;-66
2022/12/07 06:10:10;;;;;;;27.38;22.10;;;;;;;;;;9988236;28;20502;-66
2022/12/07 06:15:05;;;;;;;29.20;23.65;;;;;;;;;;9986790;28;20145;-66
2022/12/07 06:19:58;;;;;;;27.08;21.23;;;;;;;;;;9987712;28;20074;-66
2022/12/07 06:24:53;;;;;;;26.75;22.25;;;;;;;;;;9986526;28;20473;-65
2022/12/07 06:29:47;;;;;;;25.08;20.67;;;;;;;;;;9978552;28;20461;-65
2022/12/07 06:34:40;;;;;;;25.40;19.75;;;;;;;;;;9987742;28;20042;-66
2022/12/07 06:39:34;;;;;;;33.45;22.42;;;;;;;;;;9987608;28;20054;-66
2022/12/07 06:44:28;;;;;;;25.15;20.48;;;;;;;;;;9987255;28;20137;-66
2022/12/07 06:49:22;;;;;;;26.85;21.50;;;;;;;;;;9987484;28;20093;-66
2022/12/07 06:54:16;;;;;;;23.00;18.48;;;;;;;;;;9978378;28;20070;-66
2022/12/07 06:59:08;;;;;;;26.75;20.60;;;;;;;;;;9987052;28;20050;-66
2022/12/07 07:04:02;;;;;;;26.13;18.38;;;;;;;;;;9994340;28;20556;-66
2022/12/07 07:08:55;;;;;;;27.00;20.75;;;;;;;;;;9995598;28;20175;-66
2022/12/07 07:13:49;;;;;;;24.08;20.33;;;;;;;;;;9994027;28;20134;-66
2022/12/07 07:18:43;;;;;;;24.17;20.92;;;;;;;;;;9993995;28;20081;-66
2022/12/07 07:23:38;;;;;;;25.70;20.80;;;;;;;;;;9993782;28;20417;-66
2022/12/07 07:28:31;;;;;;;23.20;17.90;;;;;;;;;;9993065;28;20058;-65
2022/12/07 07:33:24;;;;;;;22.90;19.25;;;;;;;;;;9986140;28;20046;-65
2022/12/07 07:38:18;;;;;;;20.98;17.77;;;;;;;;;;9992886;28;20061;-65
2022/12/07 07:43:12;;;;;;;21.50;17.83;;;;;;;;;;9993797;28;20046;-65
2022/12/07 07:48:06;;;;;;;19.67;16.30;;;;;;;;;;9991981;28;20053;-65
2022/12/07 07:52:59;;;;;;;25.77;19.77;;;;;;;;;;9993213;28;20506;-65
2022/12/07 07:57:53;;;;;;;22.20;18.70;;;;;;;;;;9992824;28;20557;-65
2022/12/07 08:02:47;;;;;;;26.80;17.40;;;;;;;;;;9991854;28;20050;-66
2022/12/07 08:07:41;;;;;;;23.50;18.60;;;;;;;;;;9991782;28;20109;-65
2022/12/07 08:13:10;;;;;;;20.88;18.35;;;;;;;;;;9992130;28;20093;-66
2022/12/07 08:17:53;;;;;;;23.60;18.58;;;;;;;;;;9982313;28;20074;-66
2022/12/07 08:22:47;;;;;;;25.10;19.95;;;;;;;;;;9991539;28;20086;-65
2022/12/07 08:27:42;;;;;;;22.48;19.23;;;;;;;;;;9990730;28;20074;-65
2022/12/07 08:32:35;;;;;;;22.50;17.77;;;;;;;;;;9991060;28;20521;-65
2022/12/07 08:37:29;;;;;;;24.05;19.15;;;;;;;;;;9990514;28;20480;-65
2022/12/07 08:42:27;;;;;;;22.33;17.55;;;;;;;;;;9991375;28;20053;-66
2022/12/07 08:47:20;;;;;;;22.60;17.83;;;;;;;;;;9982822;28;20051;-65
2022/12/07 08:52:14;;;;;;;26.02;20.90;;;;;;;;;;9989561;28;20062;-66
2022/12/07 08:57:09;;;;;;;25.20;20.70;;;;;;;;;;9988525;28;20064;-66
2022/12/07 09:02:04;;;;;;;28.70;21.65;;;;;;;;;;9986859;28;20133;-66
2022/12/07 09:06:58;;;;;;;26.95;20.38;;;;;;;;;;9983824;28;20497;-65
2022/12/07 09:11:52;;;;;;;28.25;21.08;;;;;;;;;;9985347;28;20050;-65
2022/12/07 09:16:45;;;;;;;33.03;24.40;;;;;;;;;;9987436;28;20042;-65
2022/12/07 09:21:39;;;;;;;27.75;23.13;;;;;;;;;;9982869;28;20094;-65
2022/12/07 09:26:34;;;;;;;34.17;22.08;;;;;;;;;;9989657;28;20062;-65
2022/12/07 09:31:28;;;;;;;32.80;23.17;;;;;;;;;;9994165;28;20100;-65
2022/12/07 09:36:21;;;;;;;33.17;24.20;;;;;;;;;;9988361;28;20060;-64
2022/12/07 09:41:15;;;;;;;33.85;23.50;;;;;;;;;;9988822;28;20051;-64
2022/12/07 09:46:14;;;;;;;35.25;23.80;;;;;;;;;;9988501;28;20077;-64
2022/12/07 09:51:21;;;;;;;31.17;24.02;;;;;;;;;;9987242;28;20133;-64
2022/12/07 09:56:17;;;;;;;;;;;;;;;;;;9988018;28;20054;-64
2022/12/07 10:01:17;;;;;;;35.33;24.48;;;;;;;;;;10003526;28;19933;-64
2022/12/07 10:06:11;;;;;;;31.88;24.65;;;;;;;;;;9988243;28;20086;-64
2022/12/07 10:11:10;;;;;;;32.72;25.23;;;;;;;;;;10002956;28;20050;-64
2022/12/07 10:16:03;;;;;;;33.20;27.02;;;;;;;;;;9983019;28;20105;-64
2022/12/07 10:21:13;;;;;;;32.55;27.33;;;;;;;;;;9988225;28;20137;-64
2022/12/07 10:26:29;;;;;;;38.67;29.52;;;;;;;;;;9986769;28;20077;-64
2022/12/07 10:31:23;;;;;;;34.70;26.55;;;;;;;;;;9982549;28;20050;-64
2022/12/07 10:36:23;;;;;;;32.83;26.45;;;;;;;;;;9990298;28;20058;-65
2022/12/07 10:41:18;;;;;;;34.60;28.08;;;;;;;;;;9995339;28;20414;-65
2022/12/07 10:46:26;;;;;;;33.17;26.23;;;;;;;;;;9994753;28;20038;-65
2022/12/07 10:51:22;;;;;;;36.22;26.17;;;;;;;;;;9995414;28;20057;-65
2022/12/07 10:56:24;;;;;;;35.50;25.45;;;;;;;;;;9986456;28;20046;-65
2022/12/07 11:01:53;;;;;;;30.13;24.13;;;;;;;;;;9994897;28;20134;-64
2022/12/07 11:06:50;;;;;;;29.65;24.50;;;;;;;;;;9993876;28;20089;-64
2022/12/07 11:12:19;;;;;;;31.80;25.13;;;;;;;;;;9994167;28;20068;-65
2022/12/07 11:17:35;;;;;;;31.95;26.90;;;;;;;;;;9997353;28;20086;-65
2022/12/07 11:22:37;;;;;;;30.92;24.25;;;;;;;;;;10011118;28;20533;-64
2022/12/07 11:27:37;;;;;;;29.65;24.75;;;;;;;;;;9993073;28;20057;-64
2022/12/07 11:32:55;;;;;;;32.17;24.17;;;;;;;;;;9992580;28;20125;-65
2022/12/07 11:37:50;;;;;;;29.35;24.67;;;;;;;;;;9993215;28;20077;-65
2022/12/07 11:42:55;;;;;;;30.80;24.40;;;;;;;;;;9991832;28;20059;-65
2022/12/07 11:47:55;;;;;;;31.33;23.50;;;;;;;;;;9992311;28;20073;-65
2022/12/07 11:53:11;;;;;;;30.65;23.45;;;;;;;;;;9992079;28;20062;-64
2022/12/07 11:58:33;;;;;;;30.05;23.27;;;;;;;;;;9987040;28;20137;-65
2022/12/07 12:04:06;;;;;;;31.63;25.25;;;;;;;;;;9992841;28;20085;-65
2022/12/07 12:09:01;;;;;;;29.88;23.52;;;;;;;;;;9986164;28;20077;-65
2022/12/07 12:14:33;;;;;;;31.08;24.25;;;;;;;;;;9991795;28;20042;-64
2022/12/07 12:20:09;;;;;;;30.02;23.90;;;;;;;;;;9979141;28;20046;-65
2022/12/07 12:25:05;;;;;;;30.70;23.10;;;;;;;;;;9991468;28;20090;-65
2022/12/07 12:30:04;;;;;;;27.75;22.60;;;;;;;;;;9991010;28;20049;-65
2022/12/07 12:35:17;;;;;;;27.92;23.50;;;;;;;;;;9991919;28;20050;-65
2022/12/07 12:40:16;;;;;;;29.88;24.65;;;;;;;;;;9991224;28;20038;-65
2022/12/07 12:45:38;;;;;;;37.57;24.03;;;;;;;;;;9984407;28;20567;-64
2022/12/07 12:50:37;;;;;;;30.50;24.58;;;;;;;;;;9986769;28;20137;-64
2022/12/07 12:55:42;;;;;;;32.63;23.85;;;;;;;;;;9990681;28;20054;-65
2022/12/07 13:00:37;;;;;;;30.05;23.95;;;;;;;;;;9990266;28;20497;-65
2022/12/07 13:05:31;;;;;;;29.15;26.02;;;;;;;;;;9988779;28;20138;-65
2022/12/07 13:10:23;;;;;;;27.40;24.10;;;;;;;;;;9987057;28;20125;-65
2022/12/07 13:15:48;;;;;;;30.30;24.15;;;;;;;;;;9988853;28;20054;-65
2022/12/07 13:20:49;;;;;;;28.20;24.23;;;;;;;;;;9984096;28;20058;-64
2022/12/07 13:25:55;;;;;;;26.25;22.67;;;;;;;;;;9986681;28;20141;-65
2022/12/07 13:31:11;;;;;;;26.83;22.80;;;;;;;;;;9986385;28;20062;-64
2022/12/07 13:36:35;;;;;;;27.65;23.35;;;;;;;;;;9987509;28;20575;-64
2022/12/07 13:41:29;;;;;;;30.30;23.67;;;;;;;;;;9988861;28;20085;-64
2022/12/07 13:46:42;;;;;;;28.50;21.83;;;;;;;;;;9984352;28;20490;-64
2022/12/07 13:51:36;;;;;;;30.02;24.20;;;;;;;;;;9986506;28;20445;-65
2022/12/07 13:56:34;;;;;;;26.70;22.60;;;;;;;;;;9987876;28;20054;-65
2022/12/07 14:01:47;;;;;;;28.65;23.38;;;;;;;;;;9978637;28;20461;-64
2022/12/07 14:07:07;;;;;;;27.05;23.33;;;;;;;;;;10001729;28;20050;-65
2022/12/07 14:12:05;;;;;;;28.10;24.52;;;;;;;;;;9978771;28;20057;-65
2022/12/07 14:17:09;;;;;;;31.77;26.30;;;;;;;;;;9983711;28;20054;-64
2022/12/07 14:22:07;;;;;;;28.70;23.75;;;;;;;;;;9980565;28;20548;-64
2022/12/07 14:27:01;;;;;;;26.83;23.85;;;;;;;;;;9981352;28;20581;-64
2022/12/07 14:31:54;;;;;;;27.55;23.23;;;;;;;;;;9983964;28;20046;-65
2022/12/07 14:36:49;;;;;;;29.75;25.08;;;;;;;;;;9986217;28;20058;-65
2022/12/07 14:42:22;;;;;;;25.85;22.85;;;;;;;;;;9984095;28;20455;-65
2022/12/07 14:47:54;;;;;;;29.02;23.38;;;;;;;;;;9983935;28;20145;-65
2022/12/07 14:53:18;;;;;;;26.75;22.70;;;;;;;;;;9987236;28;20425;-65
2022/12/07 14:58:51;;;;;;;30.75;24.45;;;;;;;;;;9981839;28;20093;-64
2022/12/07 15:04:23;;;;;;;28.30;25.13;;;;;;;;;;9975565;28;20076;-65
2022/12/07 15:09:17;;;;;;;28.45;23.38;;;;;;;;;;9982402;28;20047;-64
2022/12/07 15:14:12;;;;;;;26.55;23.65;;;;;;;;;;9982704;28;20050;-64
2022/12/07 15:19:07;;;;;;;29.55;22.70;;;;;;;;;;9987976;28;20050;-65
2022/12/07 15:24:21;;;;;;;31.13;22.95;;;;;;;;;;10006909;28;20056;-64
2022/12/07 15:29:15;;;;;;;30.27;22.90;;;;;;;;;;9993531;28;20050;-65
2022/12/07 15:34:15;;;;;;;30.85;22.15;;;;;;;;;;9993397;28;20051;-64
2022/12/07 15:39:09;;;;;;;22.77;20.40;;;;;;;;;;9992992;28;20134;-64
2022/12/07 15:49:23;;;;;;;34.00;23.90;;;;;;;;;;9983038;28;20050;-63
2022/12/07 15:54:27;;;;;;;29.15;22.58;;;;;;;;;;9992908;28;20054;-64
2022/12/07 15:59:21;;;;;;;32.90;26.13;;;;;;;;;;9992247;28;20050;-64
2022/12/07 16:04:14;;;;;;;27.17;22.80;;;;;;;;;;9992716;28;20401;-64
2022/12/07 16:09:08;;;;;;;31.75;25.85;;;;;;;;;;9992928;28;20054;-66
2022/12/07 16:14:01;;;;;;;28.23;23.20;;;;;;;;;;9992657;28;20078;-64
2022/12/07 16:18:54;;;;;;;32.35;23.20;;;;;;;;;;9991548;28;20053;-65
2022/12/07 16:23:49;;;;;;;29.92;23.30;;;;;;;;;;9991863;28;20055;-64
2022/12/07 16:28:42;;;;;;;28.92;23.98;;;;;;;;;;9991891;28;20042;-64
2022/12/07 16:33:37;;;;;;;30.67;24.23;;;;;;;;;;9990032;28;20054;-64
2022/12/07 16:38:30;;;;;;;28.23;23.23;;;;;;;;;;9990496;28;20081;-63
2022/12/07 16:43:24;;;;;;;29.20;23.80;;;;;;;;;;9991121;28;20078;-63
2022/12/07 16:48:18;;;;;;;33.50;25.85;;;;;;;;;;9990724;28;20046;-63
2022/12/07 16:53:12;;;;;;;33.65;27.88;;;;;;;;;;9988904;28;20093;-64
2022/12/07 16:58:06;;;;;;;36.63;26.02;;;;;;;;;;9988502;28;20069;-64
2022/12/07 17:03:00;;;;;;;32.78;25.42;;;;;;;;;;9989268;28;20134;-64
2022/12/07 17:07:53;;;;;;;31.80;26.70;;;;;;;;;;9989507;28;20050;-64
2022/12/07 17:12:47;;;;;;;34.67;26.33;;;;;;;;;;9989421;28;20066;-64
2022/12/07 17:17:41;;;;;;;38.40;29.48;;;;;;;;;;9989297;28;20426;-64
2022/12/07 17:22:34;;;;;;;34.70;26.88;;;;;;;;;;9989960;28;20054;-64
2022/12/07 17:27:29;;;;;;;35.60;28.02;;;;;;;;;;9989846;28;20050;-64
2022/12/07 17:32:22;;;;;;;37.60;26.35;;;;;;;;;;9988793;28;20533;-64
2022/12/07 17:37:16;;;;;;;32.55;26.50;;;;;;;;;;9989459;28;20050;-64
2022/12/07 17:47:25;;;;;;;45.40;29.65;;;;;;;;;;9977917;28;20137;-64
2022/12/07 17:57:30;;;;;;;37.63;29.42;;;;;;;;;;9987867;28;20046;-64
2022/12/07 18:02:23;;;;;;;42.55;34.13;;;;;;;;;;9988666;28;20058;-64
2022/12/07 18:07:17;;;;;;;36.72;26.15;;;;;;;;;;9987772;28;20058;-64
2022/12/07 18:12:11;;;;;;;30.30;25.70;;;;;;;;;;9987430;28;20050;-64
2022/12/07 18:17:03;;;;;;;32.22;25.35;;;;;;;;;;9987904;28;20050;-64
2022/12/07 18:21:57;;;;;;;38.53;29.20;;;;;;;;;;9987411;28;20054;-66
2022/12/07 18:26:52;;;;;;;39.00;29.02;;;;;;;;;;9987072;28;20090;-64
2022/12/07 18:31:48;;;;;;;37.22;26.15;;;;;;;;;;9987488;28;20042;-66
2022/12/07 18:36:45;;;;;;;36.70;29.33;;;;;;;;;;9987697;28;20062;-64
2022/12/07 18:41:38;;;;;;;38.42;27.92;;;;;;;;;;9987969;28;20051;-64
2022/12/07 18:46:32;;;;;;;36.30;27.15;;;;;;;;;;9987259;28;20059;-66
2022/12/07 18:51:28;;;;;;;38.85;29.20;;;;;;;;;;9987394;28;20367;-63
2022/12/07 18:56:25;;;;;;;39.70;31.65;;;;;;;;;;9990399;28;20457;-64
2022/12/07 19:01:19;;;;;;;41.03;30.23;;;;;;;;;;9994515;28;20065;-66
2022/12/07 19:06:13;;;;;;;41.13;29.58;;;;;;;;;;9993465;28;20057;-64
2022/12/07 19:11:48;;;;;;;40.63;30.55;;;;;;;;;;9994443;28;20490;-66
2022/12/07 19:16:21;;;;;;;46.10;29.95;;;;;;;;;;9993872;28;20054;-64
2022/12/07 19:21:15;;;;;;;46.45;32.22;;;;;;;;;;9994410;28;20050;-65
2022/12/07 19:26:09;;;;;;;60.97;31.90;;;;;;;;;;9993696;28;20557;-63
2022/12/07 19:31:10;;;;;;;71.47;33.15;;;;;;;;;;9989367;28;20135;-62
2022/12/07 19:36:05;;;;;;;72.70;33.28;;;;;;;;;;9992966;28;20034;-66
2022/12/07 19:41:33;;;;;;;77.82;33.20;;;;;;;;;;9993298;28;20077;-66
2022/12/07 19:46:27;;;;;;;70.72;34.03;;;;;;;;;;9992330;28;20058;-66
2022/12/07 19:51:21;;;;;;;69.95;30.27;;;;;;;;;;9992793;28;20084;-66
2022/12/07 19:56:15;;;;;;;55.13;30.20;;;;;;;;;;9992511;28;20054;-66
2022/12/07 20:01:08;;;;;;;63.67;32.67;;;;;;;;;;9991824;28;20161;-66
2022/12/07 20:06:06;;;;;;;67.38;31.38;;;;;;;;;;9991815;28;20050;-66
2022/12/07 20:13:27;;;;;;;61.65;27.23;;;;;;;;;;9992298;28;20062;-66
2022/12/07 20:16:13;;;;;;;90.72;30.17;;;;;;;;;;9990722;28;20057;-66
2022/12/07 20:21:12;;;;;;;69.00;29.43;;;;;;;;;;9991808;28;20046;-66
2022/12/07 20:26:08;;;;;;;71.00;29.45;;;;;;;;;;9991734;28;20058;-65
2022/12/07 20:31:01;;;;;;;82.63;28.55;;;;;;;;;;9991834;28;20077;-65
2022/12/07 20:36:00;;;;;;;81.20;32.47;;;;;;;;;;9991304;28;20453;-65
2022/12/07 20:41:00;;;;;;;83.20;31.30;;;;;;;;;;9991023;28;20133;-65
2022/12/07 20:45:54;;;;;;;83.63;33.15;;;;;;;;;;9990367;28;20050;-65
2022/12/07 20:50:47;;;;;;;71.68;32.50;;;;;;;;;;9971883;28;20096;-65
2022/12/07 20:55:40;;;;;;;60.58;26.05;;;;;;;;;;9987318;28;20050;-65
2022/12/07 21:00:35;;;;;;;55.22;27.60;;;;;;;;;;9989809;28;20066;-65
2022/12/07 21:05:30;;;;;;;40.03;28.45;;;;;;;;;;9989591;28;20185;-65
2022/12/07 21:10:24;;;;;;;35.83;26.40;;;;;;;;;;9990155;28;20378;-65
2022/12/07 21:15:18;;;;;;;31.35;24.13;;;;;;;;;;9989283;28;20406;-65
2022/12/07 21:20:11;;;;;;;34.95;25.23;;;;;;;;;;9988185;28;20138;-65
2022/12/07 21:25:05;;;;;;;33.70;25.05;;;;;;;;;;9989359;28;20050;-65
2022/12/07 21:29:59;;;;;;;36.20;25.85;;;;;;;;;;9987992;28;20042;-64
2022/12/07 21:34:53;;;;;;;33.67;24.60;;;;;;;;;;9986868;28;20465;-64
2022/12/07 21:39:47;;;;;;;35.15;24.27;;;;;;;;;;9989410;28;20085;-64
2022/12/07 21:44:42;;;;;;;39.78;25.33;;;;;;;;;;9989006;28;20401;-64
2022/12/07 21:49:35;;;;;;;34.42;26.42;;;;;;;;;;9989235;28;20512;-63
2022/12/07 21:54:29;;;;;;;31.02;23.10;;;;;;;;;;10003723;28;20062;-64
2022/12/07 21:59:23;;;;;;;35.88;25.40;;;;;;;;;;9976588;28;20436;-65
2022/12/07 22:04:23;;;;;;;29.67;22.92;;;;;;;;;;9988604;28;20100;-65
2022/12/07 22:09:17;;;;;;;36.83;25.50;;;;;;;;;;9988317;28;20070;-66
2022/12/07 22:19:23;;;;;;;33.42;24.25;;;;;;;;;;9987939;28;20054;-65
2022/12/07 22:24:18;;;;;;;35.42;25.08;;;;;;;;;;9985594;28;20068;-65
2022/12/07 22:29:12;;;;;;;40.38;24.70;;;;;;;;;;9991146;28;20445;-65
2022/12/07 22:34:06;;;;;;;33.03;23.90;;;;;;;;;;10000872;28;20050;-65
2022/12/07 22:39:00;;;;;;;40.05;26.08;;;;;;;;;;10000350;28;20050;-65
2022/12/07 22:43:53;;;;;;;32.08;23.58;;;;;;;;;;10001119;28;20060;-65
2022/12/07 22:48:48;;;;;;;31.15;22.02;;;;;;;;;;10000127;28;20473;-65
2022/12/07 22:53:42;;;;;;;31.92;24.27;;;;;;;;;;10000824;28;20089;-65
2022/12/07 22:58:36;;;;;;;31.02;23.67;;;;;;;;;;10000185;28;20062;-65
2022/12/07 23:03:31;;;;;;;32.92;24.67;;;;;;;;;;10000183;28;20138;-65
2022/12/07 23:08:25;;;;;;;32.38;23.15;;;;;;;;;;10000256;28;20145;-65
2022/12/07 23:13:31;;;;;;;33.03;24.42;;;;;;;;;;9999951;28;20053;-65
2022/12/07 23:18:25;;;;;;;36.45;26.13;;;;;;;;;;9999577;28;20603;-65
2022/12/07 23:23:18;;;;;;;38.17;26.40;;;;;;;;;;9999420;28;20075;-65
2022/12/07 23:28:13;;;;;;;39.17;26.33;;;;;;;;;;9999363;28;20117;-65
2022/12/07 23:33:07;;;;;;;36.08;25.75;;;;;;;;;;9999759;28;20046;-65
2022/12/07 23:38:01;;;;;;;38.08;29.42;;;;;;;;;;9999431;28;20054;-65
2022/12/07 23:42:55;;;;;;;35.67;26.17;;;;;;;;;;9994178;28;20437;-65
2022/12/07 23:47:48;;;;;;;41.55;27.70;;;;;;;;;;9991554;28;20405;-65
2022/12/07 23:52:42;;;;;;;57.75;29.90;;;;;;;;;;9992949;28;20081;-65
2022/12/07 23:57:38;;;;;;;52.78;31.63;;;;;;;;;;9992590;28;20050;-64
